Melbourne International Airport
YMML : rendu visible

Aérodrome :











RETROUVEZ-NOUS SUR...

 
LOGIN :

S'inscrire | Disclaimer

   EN    FR    IT 

 









Légende :    VFR   VFR Marginal   IFR   IFR Intensif   IFR Très Intensif
Visi : 
Plafond : 
>= 8 km
>= 3000ft
5 à 8 km
1000 à 3000 ft
1500m à 5 km
500 à 1000 ft
800 à 1500m
200 à 500 ft
< 800m
< 200 ft
Symboles :   Orages  Brouillard  Fortes neiges  Fortes précipitations  Vent > 20 kt






- Altitude de l'aérodrome : 434 ft
- Code IATA : MEL


YMML - Melbourne International

DERNIER METAR :
  • 271600Z 01014KT CAVOK 11/09 Q1019

METARs EXPIRÉS :
  • 271530Z 01014KT CAVOK 11/09 Q1019 NOSIG
  • 271500Z 36011KT CAVOK 11/09 Q1019
  • 271430Z 36013KT CAVOK 11/09 Q1019 NOSIG
  • 271400Z 36012KT CAVOK 11/09 Q1019
  • 271330Z 01011KT CAVOK 12/09 Q1019 NOSIG

TAF TAF YMML
Valide du 27 à 12h jusqu'au 28 à 18h UTC


271054Z 2712/2818 01010KT CAVOK
FM271600 01010KT 9999 -SHRA BKN040
FM272100 36007KT CAVOK
FM280300 27008KT 9999 SCT040 BKN060
FM281000 34007KT CAVOK
FIR YMMM / Océanie



MET'MAP, la Météo Aéronautique d'un coup d'oeil ! - Copyright ORBIFLY Décembre 2007 - Disclaimer

ORBIFLY MET'MAP TEAM :

Programmation & Développement : Alexandra Zaïnal
Sur une idée originale de : Baudouin d'Aumeries
Assistance à la programmation : Marc-Olivier Méhu
Soutien technique & logistique : Manuel Goepfert

Contact : metmap@orbifly.com




SOURCES & CREDITS :

   NOAA       Earth
Advisory